sensor_id;sensor_type;location;lat;lon;timestamp;temperature;humidity
20744;DHT22;56303;52.160;-0.428;2022-10-16T00:01:14;13.40;99.90
20744;DHT22;56303;52.160;-0.428;2022-10-16T00:03:43;13.30;99.90
20744;DHT22;56303;52.160;-0.428;2022-10-16T00:06:12;13.20;99.90
20744;DHT22;56303;52.160;-0.428;2022-10-16T00:08:40;13.20;99.90
20744;DHT22;56303;52.160;-0.428;2022-10-16T00:11:12;13.10;99.90
20744;DHT22;56303;52.160;-0.428;2022-10-16T00:13:41;13.20;99.90
20744;DHT22;56303;52.160;-0.428;2022-10-16T00:16:09;13.10;99.90
20744;DHT22;56303;52.160;-0.428;2022-10-16T00:18:37;13.20;99.90
20744;DHT22;56303;52.160;-0.428;2022-10-16T00:21:09;13.20;99.90
20744;DHT22;56303;52.160;-0.428;2022-10-16T00:23:36;13.40;99.90
20744;DHT22;56303;52.160;-0.428;2022-10-16T00:26:06;13.30;99.90
20744;DHT22;56303;52.160;-0.428;2022-10-16T00:28:34;13.10;99.90
20744;DHT22;56303;52.160;-0.428;2022-10-16T00:31:06;13.00;99.90
20744;DHT22;56303;52.160;-0.428;2022-10-16T00:33:34;12.90;99.90
20744;DHT22;56303;52.160;-0.428;2022-10-16T00:36:03;13.10;99.90
20744;DHT22;56303;52.160;-0.428;2022-10-16T00:38:31;12.90;99.90
20744;DHT22;56303;52.160;-0.428;2022-10-16T00:40:57;13.10;99.90
20744;DHT22;56303;52.160;-0.428;2022-10-16T00:43:49;13.20;99.90
20744;DHT22;56303;52.160;-0.428;2022-10-16T00:48:52;13.00;99.90
20744;DHT22;56303;52.160;-0.428;2022-10-16T00:51:25;13.00;99.90
20744;DHT22;56303;52.160;-0.428;2022-10-16T00:53:55;13.00;99.90
20744;DHT22;56303;52.160;-0.428;2022-10-16T00:56:22;13.00;99.90
20744;DHT22;56303;52.160;-0.428;2022-10-16T00:58:49;13.00;99.90
20744;DHT22;56303;52.160;-0.428;2022-10-16T01:01:16;13.00;99.90
20744;DHT22;56303;52.160;-0.428;2022-10-16T01:03:43;13.30;99.90
20744;DHT22;56303;52.160;-0.428;2022-10-16T01:06:21;13.30;99.90
20744;DHT22;56303;52.160;-0.428;2022-10-16T01:09:02;13.40;99.90
20744;DHT22;56303;52.160;-0.428;2022-10-16T01:11:38;13.20;99.90
20744;DHT22;56303;52.160;-0.428;2022-10-16T01:14:39;13.10;99.90
20744;DHT22;56303;52.160;-0.428;2022-10-16T01:17:19;13.10;99.90
20744;DHT22;56303;52.160;-0.428;2022-10-16T01:31:20;12.90;99.90
20744;DHT22;56303;52.160;-0.428;2022-10-16T01:34:11;13.00;99.90
20744;DHT22;56303;52.160;-0.428;2022-10-16T01:36:45;13.00;99.90
20744;DHT22;56303;52.160;-0.428;2022-10-16T01:39:15;13.00;99.90
20744;DHT22;56303;52.160;-0.428;2022-10-16T01:42:01;13.20;99.90
20744;DHT22;56303;52.160;-0.428;2022-10-16T01:44:32;13.00;99.90
20744;DHT22;56303;52.160;-0.428;2022-10-16T01:47:00;13.00;99.90
20744;DHT22;56303;52.160;-0.428;2022-10-16T01:49:32;13.10;99.90
20744;DHT22;56303;52.160;-0.428;2022-10-16T01:52:03;13.10;99.90
20744;DHT22;56303;52.160;-0.428;2022-10-16T01:54:35;13.10;99.90
20744;DHT22;56303;52.160;-0.428;2022-10-16T01:57:04;13.00;99.90
20744;DHT22;56303;52.160;-0.428;2022-10-16T01:59:35;12.90;99.90
20744;DHT22;56303;52.160;-0.428;2022-10-16T02:02:07;13.30;99.90
20744;DHT22;56303;52.160;-0.428;2022-10-16T02:04:39;13.00;99.90
20744;DHT22;56303;52.160;-0.428;2022-10-16T02:07:07;13.10;99.90
20744;DHT22;56303;52.160;-0.428;2022-10-16T02:09:36;13.00;99.90
20744;DHT22;56303;52.160;-0.428;2022-10-16T02:12:12;13.10;99.90
20744;DHT22;56303;52.160;-0.428;2022-10-16T02:14:40;13.00;99.90
20744;DHT22;56303;52.160;-0.428;2022-10-16T02:17:16;12.90;99.90
20744;DHT22;56303;52.160;-0.428;2022-10-16T02:19:45;12.80;99.90
20744;DHT22;56303;52.160;-0.428;2022-10-16T02:22:21;12.90;99.90
20744;DHT22;56303;52.160;-0.428;2022-10-16T02:27:24;12.90;99.90
20744;DHT22;56303;52.160;-0.428;2022-10-16T02:29:58;12.80;99.90
20744;DHT22;56303;52.160;-0.428;2022-10-16T02:32:30;13.00;99.90
20744;DHT22;56303;52.160;-0.428;2022-10-16T02:34:58;13.10;99.90
20744;DHT22;56303;52.160;-0.428;2022-10-16T02:37:27;13.10;99.90
20744;DHT22;56303;52.160;-0.428;2022-10-16T02:39:56;12.30;99.90
20744;DHT22;56303;52.160;-0.428;2022-10-16T02:42:29;13.00;99.90
20744;DHT22;56303;52.160;-0.428;2022-10-16T02:44:59;13.20;99.90
20744;DHT22;56303;52.160;-0.428;2022-10-16T02:47:26;13.20;99.90
20744;DHT22;56303;52.160;-0.428;2022-10-16T02:49:54;13.10;99.90
20744;DHT22;56303;52.160;-0.428;2022-10-16T02:52:21;12.90;99.90
20744;DHT22;56303;52.160;-0.428;2022-10-16T02:54:47;12.90;99.90
20744;DHT22;56303;52.160;-0.428;2022-10-16T02:57:14;12.70;99.90
20744;DHT22;56303;52.160;-0.428;2022-10-16T02:59:41;12.80;99.90
20744;DHT22;56303;52.160;-0.428;2022-10-16T03:02:08;12.80;99.90
20744;DHT22;56303;52.160;-0.428;2022-10-16T03:04:35;12.70;99.90
20744;DHT22;56303;52.160;-0.428;2022-10-16T03:07:02;12.70;99.90
20744;DHT22;56303;52.160;-0.428;2022-10-16T03:09:28;12.60;99.90
20744;DHT22;56303;52.160;-0.428;2022-10-16T03:11:55;12.70;99.90
20744;DHT22;56303;52.160;-0.428;2022-10-16T03:14:22;12.70;99.90
20744;DHT22;56303;52.160;-0.428;2022-10-16T03:16:49;12.60;99.90
20744;DHT22;56303;52.160;-0.428;2022-10-16T03:19:16;12.60;99.90
20744;DHT22;56303;52.160;-0.428;2022-10-16T03:21:44;12.60;99.90
20744;DHT22;56303;52.160;-0.428;2022-10-16T03:24:12;12.50;99.90
20744;DHT22;56303;52.160;-0.428;2022-10-16T03:26:38;12.60;99.90
20744;DHT22;56303;52.160;-0.428;2022-10-16T03:29:05;12.50;99.90
20744;DHT22;56303;52.160;-0.428;2022-10-16T03:31:33;12.60;99.90
20744;DHT22;56303;52.160;-0.428;2022-10-16T03:34:00;12.60;99.90
20744;DHT22;56303;52.160;-0.428;2022-10-16T03:36:27;14.30;99.90
20744;DHT22;56303;52.160;-0.428;2022-10-16T03:38:53;12.90;99.90
20744;DHT22;56303;52.160;-0.428;2022-10-16T03:41:22;12.80;99.90
20744;DHT22;56303;52.160;-0.428;2022-10-16T03:43:50;12.90;99.90
20744;DHT22;56303;52.160;-0.428;2022-10-16T03:46:17;12.70;99.90
20744;DHT22;56303;52.160;-0.428;2022-10-16T03:48:43;12.50;99.90
20744;DHT22;56303;52.160;-0.428;2022-10-16T03:51:10;12.50;99.90
20744;DHT22;56303;52.160;-0.428;2022-10-16T03:53:37;12.70;99.90
20744;DHT22;56303;52.160;-0.428;2022-10-16T03:56:04;12.70;99.90
20744;DHT22;56303;52.160;-0.428;2022-10-16T03:58:31;12.60;99.90
20744;DHT22;56303;52.160;-0.428;2022-10-16T04:00:57;12.60;99.90
20744;DHT22;56303;52.160;-0.428;2022-10-16T04:03:24;12.40;99.90
20744;DHT22;56303;52.160;-0.428;2022-10-16T04:05:51;12.40;99.90
20744;DHT22;56303;52.160;-0.428;2022-10-16T04:08:18;12.40;99.90
20744;DHT22;56303;52.160;-0.428;2022-10-16T04:10:45;12.40;99.90
20744;DHT22;56303;52.160;-0.428;2022-10-16T04:13:12;14.00;99.90
20744;DHT22;56303;52.160;-0.428;2022-10-16T04:15:39;12.30;99.90
20744;DHT22;56303;52.160;-0.428;2022-10-16T04:18:06;12.30;99.90
20744;DHT22;56303;52.160;-0.428;2022-10-16T04:20:33;12.30;99.90
20744;DHT22;56303;52.160;-0.428;2022-10-16T04:23:00;12.10;99.90
20744;DHT22;56303;52.160;-0.428;2022-10-16T04:25:27;12.10;99.90
20744;DHT22;56303;52.160;-0.428;2022-10-16T04:27:54;12.00;99.90
20744;DHT22;56303;52.160;-0.428;2022-10-16T04:30:21;12.10;99.90
20744;DHT22;56303;52.160;-0.428;2022-10-16T04:32:51;12.20;99.90
20744;DHT22;56303;52.160;-0.428;2022-10-16T04:35:20;12.00;99.90
20744;DHT22;56303;52.160;-0.428;2022-10-16T04:37:47;12.10;99.90
20744;DHT22;56303;52.160;-0.428;2022-10-16T04:40:14;12.00;99.90
20744;DHT22;56303;52.160;-0.428;2022-10-16T04:42:41;12.10;99.90
20744;DHT22;56303;52.160;-0.428;2022-10-16T04:45:08;11.90;99.90
20744;DHT22;56303;52.160;-0.428;2022-10-16T04:47:40;11.80;99.90
20744;DHT22;56303;52.160;-0.428;2022-10-16T04:50:07;11.80;99.90
20744;DHT22;56303;52.160;-0.428;2022-10-16T04:52:35;11.60;99.90
20744;DHT22;56303;52.160;-0.428;2022-10-16T04:55:02;11.70;99.90
20744;DHT22;56303;52.160;-0.428;2022-10-16T04:57:29;11.70;99.90
20744;DHT22;56303;52.160;-0.428;2022-10-16T04:59:56;11.90;99.90
20744;DHT22;56303;52.160;-0.428;2022-10-16T05:02:23;11.90;99.90
20744;DHT22;56303;52.160;-0.428;2022-10-16T05:04:50;11.80;99.90
20744;DHT22;56303;52.160;-0.428;2022-10-16T05:07:17;11.70;99.90
20744;DHT22;56303;52.160;-0.428;2022-10-16T05:09:44;11.90;99.90
20744;DHT22;56303;52.160;-0.428;2022-10-16T05:12:11;11.70;99.90
20744;DHT22;56303;52.160;-0.428;2022-10-16T05:14:39;11.80;99.90
20744;DHT22;56303;52.160;-0.428;2022-10-16T05:17:06;11.60;99.90
20744;DHT22;56303;52.160;-0.428;2022-10-16T05:19:33;11.70;99.90
20744;DHT22;56303;52.160;-0.428;2022-10-16T05:22:00;11.70;99.90
20744;DHT22;56303;52.160;-0.428;2022-10-16T05:24:27;11.70;99.90
20744;DHT22;56303;52.160;-0.428;2022-10-16T05:26:54;11.60;99.90
20744;DHT22;56303;52.160;-0.428;2022-10-16T05:29:21;11.70;99.90
20744;DHT22;56303;52.160;-0.428;2022-10-16T05:31:51;11.70;99.90
20744;DHT22;56303;52.160;-0.428;2022-10-16T05:34:18;11.70;99.90
20744;DHT22;56303;52.160;-0.428;2022-10-16T05:36:45;11.70;99.90
20744;DHT22;56303;52.160;-0.428;2022-10-16T05:39:14;11.80;99.90
20744;DHT22;56303;52.160;-0.428;2022-10-16T05:41:42;11.70;99.90
20744;DHT22;56303;52.160;-0.428;2022-10-16T05:44:09;11.80;99.90
20744;DHT22;56303;52.160;-0.428;2022-10-16T05:46:36;11.80;99.90
20744;DHT22;56303;52.160;-0.428;2022-10-16T05:49:03;11.70;99.90
20744;DHT22;56303;52.160;-0.428;2022-10-16T05:51:29;11.50;99.90
20744;DHT22;56303;52.160;-0.428;2022-10-16T05:53:56;11.40;99.90
20744;DHT22;56303;52.160;-0.428;2022-10-16T05:56:23;11.60;99.90
20744;DHT22;56303;52.160;-0.428;2022-10-16T05:58:50;11.70;99.90
20744;DHT22;56303;52.160;-0.428;2022-10-16T06:01:18;11.70;99.90
20744;DHT22;56303;52.160;-0.428;2022-10-16T06:03:46;11.60;99.90
20744;DHT22;56303;52.160;-0.428;2022-10-16T06:06:15;11.70;99.90
20744;DHT22;56303;52.160;-0.428;2022-10-16T06:08:44;11.60;99.90
20744;DHT22;56303;52.160;-0.428;2022-10-16T06:11:15;11.70;99.90
20744;DHT22;56303;52.160;-0.428;2022-10-16T06:13:42;11.80;99.90
20744;DHT22;56303;52.160;-0.428;2022-10-16T06:16:10;11.90;99.90
20744;DHT22;56303;52.160;-0.428;2022-10-16T06:18:37;11.80;99.90
20744;DHT22;56303;52.160;-0.428;2022-10-16T06:21:09;11.90;99.90
20744;DHT22;56303;52.160;-0.428;2022-10-16T06:23:36;12.00;99.90
20744;DHT22;56303;52.160;-0.428;2022-10-16T06:26:11;12.10;99.90
20744;DHT22;56303;52.160;-0.428;2022-10-16T06:28:38;12.20;99.90
20744;DHT22;56303;52.160;-0.428;2022-10-16T06:31:07;12.20;99.90
20744;DHT22;56303;52.160;-0.428;2022-10-16T06:33:35;12.00;99.90
20744;DHT22;56303;52.160;-0.428;2022-10-16T06:36:03;12.10;99.90
20744;DHT22;56303;52.160;-0.428;2022-10-16T06:38:30;12.20;99.90
20744;DHT22;56303;52.160;-0.428;2022-10-16T06:40:57;12.20;99.90
20744;DHT22;56303;52.160;-0.428;2022-10-16T06:43:25;12.20;99.90
20744;DHT22;56303;52.160;-0.428;2022-10-16T06:45:55;12.30;99.90
20744;DHT22;56303;52.160;-0.428;2022-10-16T06:48:23;12.30;99.90
20744;DHT22;56303;52.160;-0.428;2022-10-16T06:53:24;12.00;99.90
20744;DHT22;56303;52.160;-0.428;2022-10-16T06:55:51;12.00;99.90
20744;DHT22;56303;52.160;-0.428;2022-10-16T06:58:18;12.00;99.90
20744;DHT22;56303;52.160;-0.428;2022-10-16T07:00:45;11.90;99.90
20744;DHT22;56303;52.160;-0.428;2022-10-16T07:03:12;12.00;99.90
20744;DHT22;56303;52.160;-0.428;2022-10-16T07:05:41;11.90;99.90
20744;DHT22;56303;52.160;-0.428;2022-10-16T07:08:08;12.00;99.90
20744;DHT22;56303;52.160;-0.428;2022-10-16T07:10:35;12.00;99.90
20744;DHT22;56303;52.160;-0.428;2022-10-16T07:13:02;12.00;99.90
20744;DHT22;56303;52.160;-0.428;2022-10-16T07:15:29;12.00;99.90
20744;DHT22;56303;52.160;-0.428;2022-10-16T07:17:56;12.00;99.90
20744;DHT22;56303;52.160;-0.428;2022-10-16T07:20:23;11.80;99.90
20744;DHT22;56303;52.160;-0.428;2022-10-16T07:22:50;11.70;99.90
20744;DHT22;56303;52.160;-0.428;2022-10-16T07:25:17;11.70;99.90
20744;DHT22;56303;52.160;-0.428;2022-10-16T07:27:44;11.60;99.90
20744;DHT22;56303;52.160;-0.428;2022-10-16T07:30:11;11.60;99.90
20744;DHT22;56303;52.160;-0.428;2022-10-16T07:32:38;11.40;99.90
20744;DHT22;56303;52.160;-0.428;2022-10-16T07:35:05;11.30;99.90
20744;DHT22;56303;52.160;-0.428;2022-10-16T07:37:32;11.60;99.90
20744;DHT22;56303;52.160;-0.428;2022-10-16T07:39:59;11.50;99.90
20744;DHT22;56303;52.160;-0.428;2022-10-16T07:42:27;11.60;99.90
20744;DHT22;56303;52.160;-0.428;2022-10-16T07:44:54;11.50;99.90
20744;DHT22;56303;52.160;-0.428;2022-10-16T07:47:20;11.60;99.90
20744;DHT22;56303;52.160;-0.428;2022-10-16T07:49:47;11.80;99.90
20744;DHT22;56303;52.160;-0.428;2022-10-16T07:52:14;10.90;99.90
20744;DHT22;56303;52.160;-0.428;2022-10-16T07:54:41;11.90;99.90
20744;DHT22;56303;52.160;-0.428;2022-10-16T07:57:07;12.00;99.90
20744;DHT22;56303;52.160;-0.428;2022-10-16T07:59:34;12.10;99.90
20744;DHT22;56303;52.160;-0.428;2022-10-16T08:02:01;12.10;99.90
20744;DHT22;56303;52.160;-0.428;2022-10-16T08:04:28;12.00;99.90
20744;DHT22;56303;52.160;-0.428;2022-10-16T08:06:55;11.80;99.90
20744;DHT22;56303;52.160;-0.428;2022-10-16T08:09:21;11.90;99.90
20744;DHT22;56303;52.160;-0.428;2022-10-16T08:11:48;11.60;99.90
20744;DHT22;56303;52.160;-0.428;2022-10-16T08:14:15;11.80;99.90
20744;DHT22;56303;52.160;-0.428;2022-10-16T08:16:42;11.70;99.90
20744;DHT22;56303;52.160;-0.428;2022-10-16T08:19:08;11.90;99.90
20744;DHT22;56303;52.160;-0.428;2022-10-16T08:21:35;12.00;99.90
20744;DHT22;56303;52.160;-0.428;2022-10-16T08:24:04;11.90;99.90
20744;DHT22;56303;52.160;-0.428;2022-10-16T08:26:30;11.90;99.90
20744;DHT22;56303;52.160;-0.428;2022-10-16T08:28:57;12.10;99.90
20744;DHT22;56303;52.160;-0.428;2022-10-16T08:31:24;12.10;99.90
20744;DHT22;56303;52.160;-0.428;2022-10-16T08:33:53;12.30;99.90
20744;DHT22;56303;52.160;-0.428;2022-10-16T08:36:19;12.40;99.90
20744;DHT22;56303;52.160;-0.428;2022-10-16T08:38:50;12.30;99.90
20744;DHT22;56303;52.160;-0.428;2022-10-16T08:50:29;12.90;99.90
20744;DHT22;56303;52.160;-0.428;2022-10-16T08:52:57;13.10;99.90
20744;DHT22;56303;52.160;-0.428;2022-10-16T08:55:50;12.90;99.90
20744;DHT22;56303;52.160;-0.428;2022-10-16T08:58:20;13.00;99.90
20744;DHT22;56303;52.160;-0.428;2022-10-16T09:01:01;13.10;99.90
20744;DHT22;56303;52.160;-0.428;2022-10-16T09:46:32;11.90;99.90
20744;DHT22;56303;52.160;-0.428;2022-10-16T09:49:05;14.20;99.90
20744;DHT22;56303;52.160;-0.428;2022-10-16T09:51:45;14.40;99.90
20744;DHT22;56303;52.160;-0.428;2022-10-16T09:54:17;14.50;99.90
20744;DHT22;56303;52.160;-0.428;2022-10-16T09:56:44;14.60;99.90
20744;DHT22;56303;52.160;-0.428;2022-10-16T09:59:17;14.50;99.90
20744;DHT22;56303;52.160;-0.428;2022-10-16T10:01:52;14.60;99.90
20744;DHT22;56303;52.160;-0.428;2022-10-16T10:04:21;14.70;99.90
20744;DHT22;56303;52.160;-0.428;2022-10-16T10:06:53;14.80;99.90
20744;DHT22;56303;52.160;-0.428;2022-10-16T10:12:00;14.90;99.90
20744;DHT22;56303;52.160;-0.428;2022-10-16T10:14:52;15.00;99.90
20744;DHT22;56303;52.160;-0.428;2022-10-16T10:17:25;15.10;99.90
20744;DHT22;56303;52.160;-0.428;2022-10-16T10:22:44;15.20;99.90
20744;DHT22;56303;52.160;-0.428;2022-10-16T10:28:20;15.20;99.90
20744;DHT22;56303;52.160;-0.428;2022-10-16T10:33:52;15.60;99.90
20744;DHT22;56303;52.160;-0.428;2022-10-16T10:44:52;16.20;99.90
20744;DHT22;56303;52.160;-0.428;2022-10-16T10:47:31;16.10;99.90
20744;DHT22;56303;52.160;-0.428;2022-10-16T10:50:07;16.50;99.90
20744;DHT22;56303;52.160;-0.428;2022-10-16T10:55:27;16.20;99.90
20744;DHT22;56303;52.160;-0.428;2022-10-16T10:58:31;16.30;99.90
20744;DHT22;56303;52.160;-0.428;2022-10-16T11:01:12;16.70;99.90
20744;DHT22;56303;52.160;-0.428;2022-10-16T11:06:32;17.00;99.90
20744;DHT22;56303;52.160;-0.428;2022-10-16T11:09:23;17.10;99.90
20744;DHT22;56303;52.160;-0.428;2022-10-16T11:12:11;17.30;99.90
20744;DHT22;56303;52.160;-0.428;2022-10-16T11:14:48;17.40;99.90
20744;DHT22;56303;52.160;-0.428;2022-10-16T11:17:27;17.50;99.90
20744;DHT22;56303;52.160;-0.428;2022-10-16T11:22:56;17.50;99.90
20744;DHT22;56303;52.160;-0.428;2022-10-16T11:25:31;17.50;99.90
20744;DHT22;56303;52.160;-0.428;2022-10-16T11:30:28;18.20;99.90
20744;DHT22;56303;52.160;-0.428;2022-10-16T11:33:10;18.60;99.90
20744;DHT22;56303;52.160;-0.428;2022-10-16T11:41:28;18.80;99.90
20744;DHT22;56303;52.160;-0.428;2022-10-16T11:47:33;18.60;99.90
20744;DHT22;56303;52.160;-0.428;2022-10-16T11:50:46;19.00;99.90
20744;DHT22;56303;52.160;-0.428;2022-10-16T11:53:21;18.80;99.90
20744;DHT22;56303;52.160;-0.428;2022-10-16T11:55:50;19.10;99.90
20744;DHT22;56303;52.160;-0.428;2022-10-16T12:06:56;20.80;99.90
20744;DHT22;56303;52.160;-0.428;2022-10-16T12:09:27;21.40;99.90
20744;DHT22;56303;52.160;-0.428;2022-10-16T12:11:55;22.30;99.70
20744;DHT22;56303;52.160;-0.428;2022-10-16T12:14:40;22.30;98.80
20744;DHT22;56303;52.160;-0.428;2022-10-16T12:17:38;21.80;99.90
20744;DHT22;56303;52.160;-0.428;2022-10-16T12:25:38;22.10;99.00
20744;DHT22;56303;52.160;-0.428;2022-10-16T12:30:40;21.10;99.90
20744;DHT22;56303;52.160;-0.428;2022-10-16T12:33:36;20.90;99.90
20744;DHT22;56303;52.160;-0.428;2022-10-16T12:36:13;21.30;99.90
20744;DHT22;56303;52.160;-0.428;2022-10-16T12:38:50;22.20;99.90
20744;DHT22;56303;52.160;-0.428;2022-10-16T12:43:56;23.90;98.00
20744;DHT22;56303;52.160;-0.428;2022-10-16T12:51:40;23.50;96.90
20744;DHT22;56303;52.160;-0.428;2022-10-16T12:59:44;24.10;96.60
20744;DHT22;56303;52.160;-0.428;2022-10-16T13:14:20;22.30;98.40
20744;DHT22;56303;52.160;-0.428;2022-10-16T13:17:29;22.20;98.70
20744;DHT22;56303;52.160;-0.428;2022-10-16T13:25:39;20.50;99.90
20744;DHT22;56303;52.160;-0.428;2022-10-16T13:28:10;21.60;99.90
20744;DHT22;56303;52.160;-0.428;2022-10-16T13:31:05;22.70;98.60
20744;DHT22;56303;52.160;-0.428;2022-10-16T13:33:39;22.60;98.10
20744;DHT22;56303;52.160;-0.428;2022-10-16T13:36:17;22.60;97.40
20744;DHT22;56303;52.160;-0.428;2022-10-16T13:38:45;22.60;97.90
20744;DHT22;56303;52.160;-0.428;2022-10-16T13:41:17;22.10;98.50
20744;DHT22;56303;52.160;-0.428;2022-10-16T13:43:48;22.60;98.50
20744;DHT22;56303;52.160;-0.428;2022-10-16T13:46:20;22.70;97.80
20744;DHT22;56303;52.160;-0.428;2022-10-16T13:49:05;22.60;97.70
20744;DHT22;56303;52.160;-0.428;2022-10-16T13:51:32;22.20;97.80
20744;DHT22;56303;52.160;-0.428;2022-10-16T13:53:59;21.60;99.10
20744;DHT22;56303;52.160;-0.428;2022-10-16T13:56:29;22.10;98.50
20744;DHT22;56303;52.160;-0.428;2022-10-16T14:01:40;21.10;99.70
20744;DHT22;56303;52.160;-0.428;2022-10-16T14:04:10;21.30;99.00
20744;DHT22;56303;52.160;-0.428;2022-10-16T14:06:42;21.20;99.30
20744;DHT22;56303;52.160;-0.428;2022-10-16T14:11:54;21.50;98.60
20744;DHT22;56303;52.160;-0.428;2022-10-16T14:14:23;21.10;98.80
20744;DHT22;56303;52.160;-0.428;2022-10-16T14:16:50;20.40;99.90
20744;DHT22;56303;52.160;-0.428;2022-10-16T14:21:47;20.50;99.90
20744;DHT22;56303;52.160;-0.428;2022-10-16T14:26:58;20.80;99.90
20744;DHT22;56303;52.160;-0.428;2022-10-16T14:29:27;20.30;99.90
20744;DHT22;56303;52.160;-0.428;2022-10-16T14:31:56;20.30;99.90
20744;DHT22;56303;52.160;-0.428;2022-10-16T14:34:34;19.70;99.90
20744;DHT22;56303;52.160;-0.428;2022-10-16T14:39:42;19.30;99.90
20744;DHT22;56303;52.160;-0.428;2022-10-16T14:42:16;19.70;99.90
20744;DHT22;56303;52.160;-0.428;2022-10-16T14:44:46;19.90;99.90
20744;DHT22;56303;52.160;-0.428;2022-10-16T14:47:16;19.70;99.90
20744;DHT22;56303;52.160;-0.428;2022-10-16T14:49:48;19.90;99.90
20744;DHT22;56303;52.160;-0.428;2022-10-16T14:52:16;19.90;99.90
20744;DHT22;56303;52.160;-0.428;2022-10-16T14:54:43;19.80;99.90
20744;DHT22;56303;52.160;-0.428;2022-10-16T14:57:20;19.50;99.90
20744;DHT22;56303;52.160;-0.428;2022-10-16T14:59:49;19.30;99.90
20744;DHT22;56303;52.160;-0.428;2022-10-16T15:02:24;19.20;99.90
20744;DHT22;56303;52.160;-0.428;2022-10-16T15:04:52;19.10;99.90
20744;DHT22;56303;52.160;-0.428;2022-10-16T15:07:18;18.90;99.90
20744;DHT22;56303;52.160;-0.428;2022-10-16T15:09:45;19.00;99.90
20744;DHT22;56303;52.160;-0.428;2022-10-16T15:12:15;18.70;99.90
20744;DHT22;56303;52.160;-0.428;2022-10-16T15:14:42;18.50;99.90
20744;DHT22;56303;52.160;-0.428;2022-10-16T15:17:10;18.50;99.90
20744;DHT22;56303;52.160;-0.428;2022-10-16T15:19:37;18.30;99.90
20744;DHT22;56303;52.160;-0.428;2022-10-16T15:22:04;18.40;99.90
20744;DHT22;56303;52.160;-0.428;2022-10-16T15:24:31;18.30;99.90
20744;DHT22;56303;52.160;-0.428;2022-10-16T15:26:58;18.30;99.90
20744;DHT22;56303;52.160;-0.428;2022-10-16T15:29:25;18.10;99.90
20744;DHT22;56303;52.160;-0.428;2022-10-16T15:31:51;17.90;99.90
20744;DHT22;56303;52.160;-0.428;2022-10-16T15:34:18;18.20;99.90
20744;DHT22;56303;52.160;-0.428;2022-10-16T15:36:46;18.20;99.90
20744;DHT22;56303;52.160;-0.428;2022-10-16T15:39:15;18.20;99.90
20744;DHT22;56303;52.160;-0.428;2022-10-16T15:41:44;18.30;99.90
20744;DHT22;56303;52.160;-0.428;2022-10-16T15:44:11;18.20;99.90
20744;DHT22;56303;52.160;-0.428;2022-10-16T15:46:38;18.20;99.90
20744;DHT22;56303;52.160;-0.428;2022-10-16T15:49:04;18.10;99.90
20744;DHT22;56303;52.160;-0.428;2022-10-16T15:51:31;18.10;99.90
20744;DHT22;56303;52.160;-0.428;2022-10-16T15:54:00;18.20;99.90
20744;DHT22;56303;52.160;-0.428;2022-10-16T15:56:28;18.40;99.90
20744;DHT22;56303;52.160;-0.428;2022-10-16T15:58:56;18.20;99.90
20744;DHT22;56303;52.160;-0.428;2022-10-16T16:01:25;17.60;99.90
20744;DHT22;56303;52.160;-0.428;2022-10-16T16:03:53;17.30;99.90
20744;DHT22;56303;52.160;-0.428;2022-10-16T16:06:21;17.00;99.90
20744;DHT22;56303;52.160;-0.428;2022-10-16T16:08:48;17.00;99.90
20744;DHT22;56303;52.160;-0.428;2022-10-16T16:11:16;17.00;99.90
20744;DHT22;56303;52.160;-0.428;2022-10-16T16:13:44;17.00;99.90
20744;DHT22;56303;52.160;-0.428;2022-10-16T16:16:13;16.80;99.90
20744;DHT22;56303;52.160;-0.428;2022-10-16T16:18:41;16.60;99.90
20744;DHT22;56303;52.160;-0.428;2022-10-16T16:21:11;16.40;99.90
20744;DHT22;56303;52.160;-0.428;2022-10-16T16:23:38;16.40;99.90
20744;DHT22;56303;52.160;-0.428;2022-10-16T16:26:15;16.10;99.90
20744;DHT22;56303;52.160;-0.428;2022-10-16T16:28:48;15.80;99.90
20744;DHT22;56303;52.160;-0.428;2022-10-16T16:31:17;15.80;99.90
20744;DHT22;56303;52.160;-0.428;2022-10-16T16:33:44;15.80;99.90
20744;DHT22;56303;52.160;-0.428;2022-10-16T16:36:11;15.50;99.90
20744;DHT22;56303;52.160;-0.428;2022-10-16T16:38:41;15.50;99.90
20744;DHT22;56303;52.160;-0.428;2022-10-16T16:41:13;15.40;99.90
20744;DHT22;56303;52.160;-0.428;2022-10-16T16:43:40;15.50;99.90
20744;DHT22;56303;52.160;-0.428;2022-10-16T16:46:07;15.50;99.90
20744;DHT22;56303;52.160;-0.428;2022-10-16T16:48:34;15.50;99.90
20744;DHT22;56303;52.160;-0.428;2022-10-16T16:51:12;15.40;99.90
20744;DHT22;56303;52.160;-0.428;2022-10-16T16:53:43;15.30;99.90
20744;DHT22;56303;52.160;-0.428;2022-10-16T16:56:10;15.40;99.90
20744;DHT22;56303;52.160;-0.428;2022-10-16T16:58:37;15.40;99.90
20744;DHT22;56303;52.160;-0.428;2022-10-16T17:01:05;15.20;99.90
20744;DHT22;56303;52.160;-0.428;2022-10-16T17:03:46;15.10;99.90
20744;DHT22;56303;52.160;-0.428;2022-10-16T17:06:16;15.10;99.90
20744;DHT22;56303;52.160;-0.428;2022-10-16T17:08:47;15.10;99.90
20744;DHT22;56303;52.160;-0.428;2022-10-16T17:11:20;15.00;99.90
20744;DHT22;56303;52.160;-0.428;2022-10-16T17:13:48;14.80;99.90
20744;DHT22;56303;52.160;-0.428;2022-10-16T17:16:26;14.90;99.90
20744;DHT22;56303;52.160;-0.428;2022-10-16T17:18:53;14.90;99.90
20744;DHT22;56303;52.160;-0.428;2022-10-16T17:21:20;15.00;99.90
20744;DHT22;56303;52.160;-0.428;2022-10-16T17:23:51;15.00;99.90
20744;DHT22;56303;52.160;-0.428;2022-10-16T17:26:18;14.90;99.90
20744;DHT22;56303;52.160;-0.428;2022-10-16T17:28:45;14.80;99.90
20744;DHT22;56303;52.160;-0.428;2022-10-16T17:31:17;14.90;99.90
20744;DHT22;56303;52.160;-0.428;2022-10-16T17:33:45;14.80;99.90
20744;DHT22;56303;52.160;-0.428;2022-10-16T17:36:13;14.80;99.90
20744;DHT22;56303;52.160;-0.428;2022-10-16T17:38:41;14.80;99.90
20744;DHT22;56303;52.160;-0.428;2022-10-16T17:41:18;15.00;99.90
20744;DHT22;56303;52.160;-0.428;2022-10-16T17:43:46;15.00;99.90
20744;DHT22;56303;52.160;-0.428;2022-10-16T17:46:15;15.00;99.90
20744;DHT22;56303;52.160;-0.428;2022-10-16T17:48:44;15.20;99.90
20744;DHT22;56303;52.160;-0.428;2022-10-16T17:51:14;15.10;99.90
20744;DHT22;56303;52.160;-0.428;2022-10-16T17:53:41;15.00;99.90
20744;DHT22;56303;52.160;-0.428;2022-10-16T17:56:11;15.10;99.90
20744;DHT22;56303;52.160;-0.428;2022-10-16T17:58:38;15.20;99.90
20744;DHT22;56303;52.160;-0.428;2022-10-16T18:01:13;15.30;99.90
20744;DHT22;56303;52.160;-0.428;2022-10-16T18:03:41;15.00;99.90
20744;DHT22;56303;52.160;-0.428;2022-10-16T18:06:08;15.00;99.90
20744;DHT22;56303;52.160;-0.428;2022-10-16T18:08:35;14.90;99.90
20744;DHT22;56303;52.160;-0.428;2022-10-16T18:11:04;14.70;99.90
20744;DHT22;56303;52.160;-0.428;2022-10-16T18:13:32;14.80;99.90
20744;DHT22;56303;52.160;-0.428;2022-10-16T18:16:04;14.50;99.90
20744;DHT22;56303;52.160;-0.428;2022-10-16T18:18:32;14.40;99.90
20744;DHT22;56303;52.160;-0.428;2022-10-16T18:21:00;14.30;99.90
20744;DHT22;56303;52.160;-0.428;2022-10-16T18:23:27;14.10;99.90
20744;DHT22;56303;52.160;-0.428;2022-10-16T18:25:55;14.10;99.90